LFMH/EBU METAR and TAF weather

Enter ICAO airport designator
Station Type Date Time Source
LFMH METAR 2020/07/13 14:00 UTC NOAA

LFMH 131400Z AUTO 35009KT 310V030 CAVOK 27/06 Q1020 NOSIG


Station Type Date Time Source
LFMH Decoded METAR 2020/07/13 14:00 UTC NOAA

St-Etienne Boutheon, France (LFMH) 45-32N 004-18E 402M
Jul 13, 2020 - 10:00 AM EDT / 2020.07.13 1400 UTC
Wind: from the N (350 degrees) at 10 MPH (9 KT) (direction variable):0
Visibility: greater than 7 mile(s):0
Temperature: 80 F (27 C)
Dew Point: 42 F (6 C)
Relative Humidity: 26%
Pressure (altimeter): 30.12 in. Hg (1020 hPa)
ob: LFMH 131400Z AUTO 35009KT 310V030 CAVOK 27/06 Q1020 NOSIG
cycle: 14

Station Type Date Time Source
LFMH TAF 2020/07/13 15:21 UTC NOAA

TAF LFMH 131400Z 1315/1415 35010KT CAVOK
BECMG 1320/1322 VRB03KT
BECMG 1408/1410 34005KT

Example: see airport list